createdAt,value
2023-01-28T00:01:44.414Z,97.00
2023-01-28T00:04:47.258Z,97.00
2023-01-28T00:07:50.696Z,97.00
2023-01-28T00:10:53.554Z,97.00
2023-01-28T00:13:57.750Z,97.10
2023-01-28T00:17:00.582Z,97.30
2023-01-28T00:20:03.592Z,97.00
2023-01-28T00:23:06.486Z,97.10
2023-01-28T00:26:12.368Z,97.10
2023-01-28T00:29:16.595Z,97.00
2023-01-28T00:32:19.414Z,97.10
2023-01-28T00:35:22.317Z,97.00
2023-01-28T00:38:25.222Z,97.00
2023-01-28T00:41:29.981Z,97.00
2023-01-28T00:44:34.218Z,97.30
2023-01-28T00:47:37.047Z,97.10
2023-01-28T00:50:40.345Z,97.30
2023-01-28T00:53:43.219Z,97.20
2023-01-28T00:56:46.091Z,97.20
2023-01-28T00:59:50.277Z,97.40
2023-01-28T01:02:53.789Z,96.90
2023-01-28T01:05:59.023Z,97.00
2023-01-28T01:09:02.478Z,97.20
2023-01-28T01:12:05.556Z,97.30
2023-01-28T01:15:11.360Z,97.10
2023-01-28T01:18:14.559Z,97.00
2023-01-28T01:21:19.041Z,97.20
2023-01-28T01:24:21.944Z,97.30
2023-01-28T01:27:24.944Z,97.50
2023-01-28T01:30:29.192Z,97.40
2023-01-28T01:33:32.544Z,97.10
2023-01-28T01:36:35.381Z,96.90
2023-01-28T01:39:38.423Z,97.10
2023-01-28T01:42:41.906Z,97.20
2023-01-28T01:45:48.682Z,97.40
2023-01-28T01:48:53.403Z,97.20
2023-01-28T01:52:00.778Z,97.20
2023-01-28T01:55:08.353Z,97.10
2023-01-28T01:58:14.490Z,97.20
2023-01-28T02:01:20.871Z,97.20
2023-01-28T02:04:28.388Z,97.00
2023-01-28T02:07:31.625Z,97.00
2023-01-28T02:10:34.680Z,97.00
2023-01-28T02:13:41.834Z,97.30
2023-01-28T02:16:46.253Z,97.30
2023-01-28T02:19:55.386Z,97.30
2023-01-28T02:23:22.454Z,97.10
2023-01-28T02:26:49.347Z,96.90
2023-01-28T02:29:59.197Z,97.10
2023-01-28T02:33:06.968Z,97.10
2023-01-28T02:36:18.447Z,97.10
2023-01-28T02:39:25.653Z,97.20
2023-01-28T02:42:31.365Z,97.50
2023-01-28T02:45:50.722Z,97.40
2023-01-28T02:48:53.752Z,97.40
2023-01-28T02:52:46.885Z,97.50
2023-01-28T02:55:55.286Z,97.30
2023-01-28T02:59:24.714Z,97.30
2023-01-28T03:02:34.087Z,97.20
2023-01-28T03:05:39.905Z,97.40
2023-01-28T03:09:05.120Z,97.60
2023-01-28T03:12:28.956Z,97.40
2023-01-28T03:15:56.360Z,97.40
2023-01-28T03:19:18.409Z,97.60
2023-01-28T03:22:39.682Z,97.40
2023-01-28T03:26:02.981Z,97.40
2023-01-28T03:29:26.916Z,97.40
2023-01-28T03:32:48.181Z,97.50
2023-01-28T03:36:10.065Z,97.30
2023-01-28T03:39:13.111Z,97.40
2023-01-28T03:42:19.011Z,97.60
2023-01-28T03:45:22.389Z,97.30
2023-01-28T03:48:28.857Z,97.40
2023-01-28T03:51:33.058Z,97.50
2023-01-28T03:54:35.972Z,97.10
2023-01-28T03:57:38.851Z,97.00
2023-01-28T04:00:42.307Z,97.00
2023-01-28T04:03:45.283Z,97.20
2023-01-28T04:06:49.533Z,97.30
2023-01-28T04:09:53.602Z,97.10
2023-01-28T04:12:56.733Z,97.10
2023-01-28T04:16:03.451Z,97.10
2023-01-28T04:19:06.463Z,97.00
2023-01-28T04:22:12.537Z,97.10
2023-01-28T04:25:15.902Z,97.30
2023-01-28T04:28:19.030Z,97.20
2023-01-28T04:31:23.651Z,97.20
2023-01-28T04:34:26.507Z,97.00
2023-01-28T04:37:30.733Z,97.30
2023-01-28T04:40:33.604Z,97.10
2023-01-28T04:43:36.498Z,96.90
2023-01-28T04:46:39.369Z,96.90
2023-01-28T04:49:42.249Z,96.90
2023-01-28T04:52:46.494Z,97.00
2023-01-28T04:55:49.367Z,96.80
2023-01-28T04:58:52.230Z,97.00
2023-01-28T05:01:55.108Z,96.90
2023-01-28T05:04:58.010Z,97.00
2023-01-28T05:08:02.204Z,96.90
2023-01-28T05:11:05.289Z,96.90
2023-01-28T05:14:08.348Z,96.70
2023-01-28T05:17:11.246Z,96.70
2023-01-28T05:20:15.208Z,96.80
2023-01-28T05:23:19.438Z,96.70
2023-01-28T05:26:22.289Z,96.70
2023-01-28T05:29:25.194Z,96.80
2023-01-28T05:32:28.125Z,96.70
2023-01-28T05:35:31.049Z,96.60
2023-01-28T05:38:35.369Z,96.60
2023-01-28T05:41:38.208Z,96.70
2023-01-28T05:44:41.058Z,97.00
2023-01-28T05:47:45.742Z,96.80
2023-01-28T05:50:49.085Z,96.70
2023-01-28T05:53:53.300Z,96.70
2023-01-28T05:56:56.159Z,96.70
2023-01-28T05:59:59.000Z,96.80
2023-01-28T06:03:01.866Z,97.00
2023-01-28T06:06:04.945Z,96.90
2023-01-28T06:09:09.214Z,97.00
2023-01-28T06:12:12.059Z,96.70
2023-01-28T06:15:14.911Z,97.00
2023-01-28T06:18:17.831Z,96.90
2023-01-28T06:21:20.691Z,96.60
2023-01-28T06:24:24.989Z,96.80
2023-01-28T06:27:27.871Z,96.90
2023-01-28T06:30:30.790Z,96.80
2023-01-28T06:33:33.706Z,96.70
2023-01-28T06:36:37.836Z,96.70
2023-01-28T06:39:42.145Z,97.00
2023-01-28T06:42:44.988Z,97.00
2023-01-28T06:45:48.425Z,96.90
2023-01-28T06:48:51.537Z,97.10
2023-01-28T06:51:54.374Z,97.40
2023-01-28T06:54:58.624Z,97.00
2023-01-28T06:58:01.487Z,97.20
2023-01-28T07:01:04.737Z,97.00
2023-01-28T07:04:08.695Z,97.10
2023-01-28T07:07:11.531Z,97.00
2023-01-28T07:10:16.568Z,97.10
2023-01-28T07:13:19.709Z,97.10
2023-01-28T07:16:22.600Z,97.00
2023-01-28T07:19:25.424Z,97.00
2023-01-28T07:22:28.266Z,96.90
2023-01-28T07:25:32.583Z,96.90
2023-01-28T07:28:35.504Z,97.10
2023-01-28T07:31:38.983Z,97.30
2023-01-28T07:34:43.153Z,97.20
2023-01-28T07:37:53.228Z,97.30
2023-01-28T07:40:57.430Z,97.30
2023-01-28T07:44:00.345Z,97.30
2023-01-28T07:47:03.281Z,97.20
2023-01-28T07:50:06.849Z,97.50
2023-01-28T07:53:11.690Z,97.50
2023-01-28T07:56:15.891Z,97.50
2023-01-28T07:59:19.282Z,97.60
2023-01-28T08:02:22.137Z,97.30
2023-01-28T08:05:27.170Z,97.40
2023-01-28T08:08:30.212Z,97.20
2023-01-28T08:11:36.233Z,97.20
2023-01-28T08:14:39.075Z,97.50
2023-01-28T08:17:41.889Z,97.40
2023-01-28T08:20:47.181Z,97.50
2023-01-28T08:23:50.105Z,97.40
2023-01-28T08:26:54.305Z,97.40
2023-01-28T08:29:57.140Z,97.40
2023-01-28T08:33:01.009Z,97.40
2023-01-28T08:36:04.693Z,97.60
2023-01-28T08:39:07.539Z,97.60
2023-01-28T08:42:11.750Z,97.60
2023-01-28T08:45:14.660Z,97.50
2023-01-28T08:48:19.556Z,97.60
2023-01-28T08:51:22.406Z,97.30
2023-01-28T08:54:25.302Z,97.50
2023-01-28T08:57:29.453Z,97.50
2023-01-28T09:00:32.401Z,97.30
2023-01-28T09:03:36.150Z,97.10
2023-01-28T09:06:39.099Z,97.30
2023-01-28T09:09:41.926Z,97.20
2023-01-28T09:12:46.130Z,97.60
2023-01-28T09:15:49.002Z,97.50
2023-01-28T09:18:52.300Z,97.30
2023-01-28T09:21:55.134Z,97.40
2023-01-28T09:24:57.987Z,97.50
2023-01-28T09:28:02.198Z,97.30
2023-01-28T09:31:06.686Z,97.40
2023-01-28T09:34:09.867Z,97.30
2023-01-28T09:37:12.923Z,97.10
2023-01-28T09:40:18.805Z,97.10
2023-01-28T09:43:46.025Z,97.10
2023-01-28T09:46:49.015Z,97.00
2023-01-28T09:49:54.084Z,97.10
2023-01-28T09:53:02.345Z,96.90
2023-01-28T09:56:08.582Z,96.60
2023-01-28T09:59:20.138Z,96.50
2023-01-28T10:02:38.526Z,96.50
2023-01-28T10:05:52.224Z,96.60
2023-01-28T10:09:07.354Z,96.60
2023-01-28T10:12:24.283Z,96.90
2023-01-28T10:15:53.914Z,96.80
2023-01-28T10:19:01.653Z,97.00
2023-01-28T10:22:08.577Z,97.00
2023-01-28T10:25:20.481Z,96.90
2023-01-28T10:28:27.833Z,96.70
2023-01-28T10:31:40.849Z,96.60
2023-01-28T10:34:43.818Z,96.50
2023-01-28T10:37:46.922Z,96.10
2023-01-28T10:40:50.160Z,95.70
2023-01-28T10:43:53.353Z,95.20
2023-01-28T10:47:00.817Z,95.20
2023-01-28T10:50:06.641Z,95.60
2023-01-28T10:53:09.541Z,95.20
2023-01-28T10:56:15.870Z,95.30
2023-01-28T10:59:27.144Z,95.10
2023-01-28T11:02:37.099Z,95.10
2023-01-28T11:05:40.080Z,95.40
2023-01-28T11:08:45.601Z,95.50
2023-01-28T11:11:48.431Z,95.70
2023-01-28T11:14:53.167Z,95.70
2023-01-28T11:18:02.486Z,99.80
2023-01-28T11:21:08.332Z,96.10
2023-01-28T11:24:18.037Z,95.20
2023-01-28T11:27:24.933Z,95.30
2023-01-28T11:30:30.541Z,95.30
2023-01-28T11:33:38.842Z,96.40
2023-01-28T11:36:51.981Z,96.30
2023-01-28T11:40:06.008Z,95.80
2023-01-28T11:43:10.147Z,96.30
2023-01-28T11:46:41.552Z,94.80
2023-01-28T11:50:11.640Z,95.20
2023-01-28T11:53:47.586Z,94.80
2023-01-28T11:57:14.116Z,96.60
2023-01-28T12:00:32.489Z,95.90
2023-01-28T12:03:50.435Z,95.10
2023-01-28T12:07:14.305Z,95.50
2023-01-28T12:10:26.005Z,95.60
2023-01-28T12:13:39.277Z,96.10
2023-01-28T12:16:52.647Z,95.80
2023-01-28T12:20:07.808Z,95.60
2023-01-28T12:23:28.731Z,95.30
2023-01-28T12:26:41.337Z,95.20
2023-01-28T12:29:53.534Z,94.40
2023-01-28T12:33:17.528Z,95.20
2023-01-28T12:36:34.802Z,94.50
2023-01-28T12:39:52.656Z,94.80
2023-01-28T12:42:59.454Z,94.70
2023-01-28T12:46:06.184Z,94.20
2023-01-28T12:49:16.028Z,94.70
2023-01-28T12:52:24.426Z,94.30
2023-01-28T12:55:38.629Z,94.60
2023-01-28T12:58:48.254Z,94.30
2023-01-28T13:01:56.916Z,94.20
2023-01-28T13:05:07.814Z,94.20
2023-01-28T13:08:16.860Z,94.20
2023-01-28T13:11:21.793Z,94.10
2023-01-28T13:14:29.478Z,94.10
2023-01-28T13:17:33.534Z,94.30
2023-01-28T13:20:46.838Z,94.00
2023-01-28T13:23:52.036Z,94.40
2023-01-28T13:26:57.674Z,94.30
2023-01-28T13:30:07.613Z,94.10
2023-01-28T13:33:29.868Z,93.70
2023-01-28T13:36:35.326Z,94.10
2023-01-28T13:39:38.561Z,94.00
2023-01-28T13:42:42.968Z,93.80
2023-01-28T13:45:57.244Z,93.70
2023-01-28T13:49:03.126Z,93.70
2023-01-28T13:52:14.863Z,94.30
2023-01-28T13:55:37.500Z,94.40
2023-01-28T13:59:10.035Z,94.50
2023-01-28T14:02:37.876Z,93.40
2023-01-28T14:06:03.040Z,93.50
2023-01-28T14:09:37.551Z,94.10
2023-01-28T14:12:59.319Z,94.80
2023-01-28T14:16:26.639Z,94.60
2023-01-28T14:19:32.439Z,94.50
2023-01-28T14:22:37.340Z,94.20
2023-01-28T14:25:51.958Z,93.60
2023-01-28T14:29:05.730Z,94.10
2023-01-28T14:32:15.739Z,93.90
2023-01-28T14:35:23.414Z,94.00
2023-01-28T14:38:26.302Z,93.90
2023-01-28T14:41:29.778Z,93.80
2023-01-28T14:44:37.555Z,93.80
2023-01-28T14:48:13.302Z,94.10
2023-01-28T14:51:39.022Z,94.40
2023-01-28T14:54:59.953Z,93.90
2023-01-28T14:58:05.865Z,94.20
2023-01-28T15:01:21.540Z,93.70
2023-01-28T15:04:26.630Z,94.10
2023-01-28T15:07:30.818Z,94.10
2023-01-28T15:10:37.575Z,94.30
2023-01-28T15:13:43.970Z,94.10
2023-01-28T15:16:49.906Z,93.90
2023-01-28T15:19:55.722Z,93.90
2023-01-28T15:23:02.055Z,97.60
2023-01-28T15:26:08.798Z,95.00
2023-01-28T15:29:25.579Z,94.20
2023-01-28T15:32:30.565Z,93.90
2023-01-28T15:35:33.821Z,93.60
2023-01-28T15:38:38.324Z,93.40
2023-01-28T15:41:47.112Z,93.60
2023-01-28T15:44:51.273Z,93.50
2023-01-28T15:48:05.324Z,94.20
2023-01-28T15:51:18.123Z,93.90
2023-01-28T15:54:23.398Z,93.90
2023-01-28T15:57:30.972Z,93.70
2023-01-28T16:00:33.867Z,94.30
2023-01-28T16:03:39.928Z,94.40
2023-01-28T16:06:43.016Z,94.50
2023-01-28T16:09:53.439Z,94.60
2023-01-28T16:13:04.695Z,94.90
2023-01-28T16:16:08.690Z,94.90
2023-01-28T16:19:25.911Z,95.10
2023-01-28T16:22:35.490Z,95.40
2023-01-28T16:25:41.585Z,95.50
2023-01-28T16:28:44.418Z,95.80
2023-01-28T16:31:47.344Z,95.80
2023-01-28T16:34:50.189Z,95.90
2023-01-28T16:37:53.142Z,95.90
2023-01-28T16:40:59.093Z,96.10
2023-01-28T16:44:05.633Z,96.00
2023-01-28T16:47:09.691Z,96.10
2023-01-28T16:50:13.492Z,96.10
2023-01-28T16:53:24.407Z,96.00
2023-01-28T16:56:44.491Z,96.20
2023-01-28T16:59:48.717Z,96.30
2023-01-28T17:02:52.233Z,96.20
2023-01-28T17:05:55.103Z,96.40
2023-01-28T17:08:57.955Z,96.50
2023-01-28T17:12:03.600Z,96.80
2023-01-28T17:15:07.664Z,96.90
2023-01-28T17:18:11.364Z,97.10
2023-01-28T17:21:14.181Z,97.10
2023-01-28T17:24:17.122Z,97.10
2023-01-28T17:27:21.314Z,97.10
2023-01-28T17:30:24.257Z,97.30
2023-01-28T17:33:27.089Z,97.20
2023-01-28T17:36:30.137Z,97.30
2023-01-28T17:39:33.005Z,97.50
2023-01-28T17:42:37.193Z,97.50
2023-01-28T17:45:40.156Z,97.30
2023-01-28T17:48:44.005Z,98.00
2023-01-28T17:51:48.727Z,98.50
2023-01-28T17:54:51.661Z,97.70
2023-01-28T17:57:55.964Z,97.50
2023-01-28T18:00:58.877Z,97.70
2023-01-28T18:04:02.520Z,97.70
2023-01-28T18:07:10.653Z,97.90
2023-01-28T18:10:13.888Z,97.70
2023-01-28T18:13:18.181Z,98.00
2023-01-28T18:16:21.916Z,97.70
2023-01-28T18:19:24.891Z,97.90
2023-01-28T18:22:27.759Z,98.00
2023-01-28T18:25:30.761Z,97.70
2023-01-28T18:28:34.975Z,97.70
2023-01-28T18:31:37.921Z,97.80
2023-01-28T18:34:40.797Z,98.00
2023-01-28T18:37:43.681Z,97.90
2023-01-28T18:40:47.056Z,97.80
2023-01-28T18:43:51.276Z,97.90
2023-01-28T18:46:54.290Z,97.80
2023-01-28T18:49:57.142Z,97.70
2023-01-28T18:53:00.123Z,97.70
2023-01-28T18:56:04.736Z,97.70
2023-01-28T18:59:12.377Z,97.80
2023-01-28T19:02:16.152Z,98.00
2023-01-28T19:05:19.221Z,97.90
2023-01-28T19:08:22.061Z,97.90
2023-01-28T19:11:26.894Z,97.80
2023-01-28T19:14:31.218Z,97.60
2023-01-28T19:17:35.520Z,97.90
2023-01-28T19:20:39.802Z,98.30
2023-01-28T19:23:49.876Z,98.40
2023-01-28T19:26:53.165Z,97.90
2023-01-28T19:29:57.374Z,97.90
2023-01-28T19:33:00.985Z,98.00
2023-01-28T19:36:04.420Z,97.90
2023-01-28T19:39:09.154Z,98.20
2023-01-28T19:42:12.020Z,98.20
2023-01-28T19:45:16.695Z,98.10
2023-01-28T19:48:19.765Z,97.90
2023-01-28T19:51:23.817Z,98.00
2023-01-28T19:54:26.936Z,97.80
2023-01-28T19:57:29.835Z,98.00
2023-01-28T20:00:34.264Z,98.30
2023-01-28T20:03:37.597Z,98.10
2023-01-28T20:06:40.557Z,98.00
2023-01-28T20:09:43.401Z,97.80
2023-01-28T20:12:46.263Z,97.50
2023-01-28T20:15:50.488Z,97.50
2023-01-28T20:18:56.182Z,97.60
2023-01-28T20:21:59.012Z,97.70
2023-01-28T20:25:01.884Z,97.50
2023-01-28T20:28:04.891Z,97.50
2023-01-28T20:31:11.171Z,97.40
2023-01-28T20:34:16.246Z,97.50
2023-01-28T20:37:19.194Z,97.60
2023-01-28T20:40:22.529Z,97.60
2023-01-28T20:43:26.803Z,97.60
2023-01-28T20:46:36.416Z,97.70
2023-01-28T20:49:39.421Z,97.70
2023-01-28T20:52:42.358Z,97.60
2023-01-28T20:55:45.245Z,97.60
2023-01-28T20:58:49.382Z,97.60
2023-01-28T21:01:53.833Z,97.60
2023-01-28T21:04:56.697Z,97.60
2023-01-28T21:07:59.628Z,97.90
2023-01-28T21:11:03.074Z,97.80
2023-01-28T21:14:06.178Z,97.90
2023-01-28T21:17:10.471Z,97.90
2023-01-28T21:20:14.488Z,98.10
2023-01-28T21:23:18.306Z,98.10
2023-01-28T21:26:21.835Z,98.20
2023-01-28T21:29:24.811Z,98.10
2023-01-28T21:32:30.812Z,98.10
2023-01-28T21:35:37.021Z,98.20
2023-01-28T21:38:40.309Z,98.30
2023-01-28T21:41:43.313Z,98.40
2023-01-28T21:44:47.120Z,98.40
2023-01-28T21:47:51.372Z,98.50
2023-01-28T21:51:12.086Z,98.30
2023-01-28T21:54:16.320Z,98.30
2023-01-28T21:57:19.271Z,98.40
2023-01-28T22:00:23.158Z,98.40
2023-01-28T22:03:31.277Z,98.50
2023-01-28T22:06:34.268Z,98.20
2023-01-28T22:09:37.739Z,98.30
2023-01-28T22:12:40.678Z,98.20
2023-01-28T22:15:43.663Z,98.40
2023-01-28T22:18:50.312Z,98.10
2023-01-28T22:21:53.568Z,98.10
2023-01-28T22:24:56.434Z,98.20
2023-01-28T22:27:59.318Z,98.10
2023-01-28T22:31:09.740Z,98.20
2023-01-28T22:34:14.133Z,98.10
2023-01-28T22:37:17.007Z,98.00
2023-01-28T22:40:20.047Z,98.10
2023-01-28T22:43:22.946Z,98.10
2023-01-28T22:46:26.397Z,98.20
2023-01-28T22:49:30.641Z,98.40
2023-01-28T22:52:33.543Z,98.30
2023-01-28T22:55:36.414Z,98.50
2023-01-28T22:58:39.411Z,98.10
2023-01-28T23:01:42.566Z,98.20
2023-01-28T23:04:47.078Z,98.30
2023-01-28T23:07:50.037Z,98.10
2023-01-28T23:10:53.130Z,98.10
2023-01-28T23:14:15.199Z,98.10
2023-01-28T23:17:35.825Z,98.10
2023-01-28T23:20:58.999Z,98.40
2023-01-28T23:24:20.829Z,98.50
2023-01-28T23:27:24.478Z,98.40
2023-01-28T23:30:27.418Z,98.40
2023-01-28T23:33:30.446Z,98.50
2023-01-28T23:36:34.655Z,98.40
2023-01-28T23:39:37.878Z,98.40
2023-01-28T23:42:41.749Z,98.40
2023-01-28T23:45:44.592Z,98.40
2023-01-28T23:48:47.433Z,98.40
2023-01-28T23:51:51.778Z,98.70
2023-01-28T23:54:54.855Z,98.90
2023-01-28T23:57:57.706Z,98.90
